KTUP/TUP METAR and TAF weather

Enter ICAO airport designator
Station Type Date Time Source
KTUP METAR 2021/05/14 05:53 UTC NOAA

KTUP 140553Z AUTO 01006KT 10SM CLR 12/08 A3026 RMK AO2 SLP243 T01170078 10211 20117 402330100 51002 $


Station Type Date Time Source
KTUP Decoded METAR 2021/05/14 05:53 UTC NOAA

TUPELO REGIONAL AIRPORT, MS, United States (KTUP) 34-16N 88-46W 105M
May 14, 2021 - 01:53 AM EDT / 2021.05.14 0553 UTC
Wind: from the N (010 degrees) at 7 MPH (6 KT):0
Visibility: 10 mile(s):0
Sky conditions: clear
Temperature: 53.1 F (11.7 C)
Dew Point: 46.0 F (7.8 C)
Relative Humidity: 76%
Pressure (altimeter): 30.26 in. Hg (1024 hPa)
Pressure tendency: 0.01 inches (0.2 hPa) higher than three hours ago
ob: KTUP 140553Z AUTO 01006KT 10SM CLR 12/08 A3026 RMK AO2 SLP243 T01170078 10211 20117 402330100 51002
cycle: 6

Station Type Date Time Source
KTUP TAF 2021/05/14 06:22 UTC NOAA

TAF KTUP 140520Z 1406/1506 01002KT P6SM SKC
FM141500 06006KT P6SM SKC
FM150100 07003KT P6SM SKC

Example: see airport list